sensor_id;sensor_type;location;lat;lon;timestamp;P1;durP1;ratioP1;P2;durP2;ratioP2
8592;SDS011;4334;49.982;8.398;2022-11-15T00:01:07;24.10;;;15.20;;
8592;SDS011;4334;49.982;8.398;2022-11-15T00:03:35;22.47;;;15.00;;
8592;SDS011;4334;49.982;8.398;2022-11-15T00:06:02;21.00;;;14.93;;
8592;SDS011;4334;49.982;8.398;2022-11-15T00:08:31;21.47;;;15.47;;
8592;SDS011;4334;49.982;8.398;2022-11-15T00:10:59;22.27;;;15.27;;
8592;SDS011;4334;49.982;8.398;2022-11-15T00:13:27;20.87;;;14.53;;
8592;SDS011;4334;49.982;8.398;2022-11-15T00:15:56;24.90;;;15.30;;
8592;SDS011;4334;49.982;8.398;2022-11-15T00:18:24;20.33;;;14.53;;
8592;SDS011;4334;49.982;8.398;2022-11-15T00:20:51;23.00;;;15.23;;
8592;SDS011;4334;49.982;8.398;2022-11-15T00:23:17;23.47;;;15.33;;
8592;SDS011;4334;49.982;8.398;2022-11-15T00:25:46;21.80;;;15.47;;
8592;SDS011;4334;49.982;8.398;2022-11-15T00:28:13;22.77;;;15.03;;
8592;SDS011;4334;49.982;8.398;2022-11-15T00:30:40;21.37;;;14.90;;
8592;SDS011;4334;49.982;8.398;2022-11-15T00:33:07;21.47;;;14.17;;
8592;SDS011;4334;49.982;8.398;2022-11-15T00:35:35;23.13;;;15.13;;
8592;SDS011;4334;49.982;8.398;2022-11-15T00:38:02;24.67;;;16.10;;
8592;SDS011;4334;49.982;8.398;2022-11-15T00:40:29;21.93;;;15.50;;
8592;SDS011;4334;49.982;8.398;2022-11-15T00:42:57;23.50;;;15.10;;
8592;SDS011;4334;49.982;8.398;2022-11-15T00:45:25;20.27;;;14.00;;
8592;SDS011;4334;49.982;8.398;2022-11-15T00:47:52;21.37;;;14.17;;
8592;SDS011;4334;49.982;8.398;2022-11-15T00:50:19;20.37;;;14.03;;
8592;SDS011;4334;49.982;8.398;2022-11-15T00:52:45;20.07;;;13.77;;
8592;SDS011;4334;49.982;8.398;2022-11-15T00:55:13;21.70;;;14.10;;
8592;SDS011;4334;49.982;8.398;2022-11-15T00:57:41;20.40;;;13.60;;
8592;SDS011;4334;49.982;8.398;2022-11-15T01:00:10;19.03;;;12.97;;
8592;SDS011;4334;49.982;8.398;2022-11-15T01:02:38;20.30;;;14.13;;
8592;SDS011;4334;49.982;8.398;2022-11-15T01:05:05;20.77;;;14.30;;
8592;SDS011;4334;49.982;8.398;2022-11-15T01:07:32;20.67;;;14.13;;
8592;SDS011;4334;49.982;8.398;2022-11-15T01:09:59;19.90;;;13.13;;
8592;SDS011;4334;49.982;8.398;2022-11-15T01:12:26;18.63;;;12.73;;
8592;SDS011;4334;49.982;8.398;2022-11-15T01:14:53;19.57;;;12.97;;
8592;SDS011;4334;49.982;8.398;2022-11-15T01:17:21;23.33;;;13.20;;
8592;SDS011;4334;49.982;8.398;2022-11-15T01:19:48;25.63;;;14.40;;
8592;SDS011;4334;49.982;8.398;2022-11-15T01:22:15;22.87;;;14.07;;
8592;SDS011;4334;49.982;8.398;2022-11-15T01:24:42;23.13;;;14.20;;
8592;SDS011;4334;49.982;8.398;2022-11-15T01:27:09;20.80;;;13.47;;
8592;SDS011;4334;49.982;8.398;2022-11-15T01:29:36;19.37;;;12.97;;
8592;SDS011;4334;49.982;8.398;2022-11-15T01:32:03;18.43;;;13.20;;
8592;SDS011;4334;49.982;8.398;2022-11-15T01:34:31;21.27;;;14.07;;
8592;SDS011;4334;49.982;8.398;2022-11-15T01:36:58;17.30;;;13.27;;
8592;SDS011;4334;49.982;8.398;2022-11-15T01:39:25;18.13;;;13.10;;
8592;SDS011;4334;49.982;8.398;2022-11-15T01:41:52;19.80;;;12.80;;
8592;SDS011;4334;49.982;8.398;2022-11-15T01:44:36;18.67;;;13.17;;
8592;SDS011;4334;49.982;8.398;2022-11-15T01:47:07;21.20;;;14.30;;
8592;SDS011;4334;49.982;8.398;2022-11-15T01:49:39;23.50;;;13.93;;
8592;SDS011;4334;49.982;8.398;2022-11-15T01:52:22;20.13;;;13.57;;
8592;SDS011;4334;49.982;8.398;2022-11-15T01:54:54;17.70;;;12.70;;
8592;SDS011;4334;49.982;8.398;2022-11-15T01:57:25;22.03;;;12.87;;
8592;SDS011;4334;49.982;8.398;2022-11-15T01:59:52;19.10;;;12.77;;
8592;SDS011;4334;49.982;8.398;2022-11-15T02:02:20;18.07;;;12.57;;
8592;SDS011;4334;49.982;8.398;2022-11-15T02:04:48;21.80;;;12.90;;
8592;SDS011;4334;49.982;8.398;2022-11-15T02:07:16;18.97;;;13.60;;
8592;SDS011;4334;49.982;8.398;2022-11-15T02:09:45;17.03;;;12.83;;
8592;SDS011;4334;49.982;8.398;2022-11-15T02:12:13;16.60;;;12.73;;
8592;SDS011;4334;49.982;8.398;2022-11-15T02:14:44;19.97;;;12.47;;
8592;SDS011;4334;49.982;8.398;2022-11-15T02:17:21;20.57;;;12.57;;
8592;SDS011;4334;49.982;8.398;2022-11-15T02:20:13;18.60;;;12.47;;
8592;SDS011;4334;49.982;8.398;2022-11-15T02:23:21;17.90;;;12.27;;
8592;SDS011;4334;49.982;8.398;2022-11-15T02:26:41;15.73;;;12.33;;
8592;SDS011;4334;49.982;8.398;2022-11-15T02:29:50;20.00;;;12.57;;
8592;SDS011;4334;49.982;8.398;2022-11-15T02:32:33;21.00;;;12.80;;
8592;SDS011;4334;49.982;8.398;2022-11-15T02:35:09;19.97;;;12.87;;
8592;SDS011;4334;49.982;8.398;2022-11-15T02:37:44;20.50;;;12.37;;
8592;SDS011;4334;49.982;8.398;2022-11-15T02:40:18;19.83;;;13.53;;
8592;SDS011;4334;49.982;8.398;2022-11-15T02:42:53;19.43;;;12.50;;
8592;SDS011;4334;49.982;8.398;2022-11-15T02:45:44;17.33;;;12.67;;
8592;SDS011;4334;49.982;8.398;2022-11-15T02:48:15;17.77;;;11.90;;
8592;SDS011;4334;49.982;8.398;2022-11-15T02:50:44;17.30;;;11.77;;
8592;SDS011;4334;49.982;8.398;2022-11-15T02:53:12;17.97;;;11.83;;
8592;SDS011;4334;49.982;8.398;2022-11-15T02:55:41;20.47;;;12.83;;
8592;SDS011;4334;49.982;8.398;2022-11-15T02:58:33;18.83;;;12.10;;
8592;SDS011;4334;49.982;8.398;2022-11-15T03:01:21;19.87;;;12.67;;
8592;SDS011;4334;49.982;8.398;2022-11-15T03:04:02;20.80;;;12.77;;
8592;SDS011;4334;49.982;8.398;2022-11-15T03:06:37;21.63;;;12.83;;
8592;SDS011;4334;49.982;8.398;2022-11-15T03:09:11;17.77;;;12.30;;
8592;SDS011;4334;49.982;8.398;2022-11-15T03:11:47;20.37;;;13.40;;
8592;SDS011;4334;49.982;8.398;2022-11-15T03:14:21;19.23;;;12.50;;
8592;SDS011;4334;49.982;8.398;2022-11-15T03:16:54;16.53;;;12.00;;
8592;SDS011;4334;49.982;8.398;2022-11-15T03:19:31;19.33;;;12.93;;
8592;SDS011;4334;49.982;8.398;2022-11-15T03:22:06;19.83;;;13.00;;
8592;SDS011;4334;49.982;8.398;2022-11-15T03:24:37;18.70;;;12.83;;
8592;SDS011;4334;49.982;8.398;2022-11-15T03:27:05;21.80;;;13.80;;
8592;SDS011;4334;49.982;8.398;2022-11-15T03:29:37;20.60;;;12.77;;
8592;SDS011;4334;49.982;8.398;2022-11-15T03:32:06;18.90;;;12.83;;
8592;SDS011;4334;49.982;8.398;2022-11-15T03:34:39;16.97;;;11.47;;
8592;SDS011;4334;49.982;8.398;2022-11-15T03:37:10;18.60;;;12.67;;
8592;SDS011;4334;49.982;8.398;2022-11-15T03:39:40;15.80;;;11.70;;
8592;SDS011;4334;49.982;8.398;2022-11-15T03:42:11;17.40;;;11.50;;
8592;SDS011;4334;49.982;8.398;2022-11-15T03:44:45;17.90;;;11.60;;
8592;SDS011;4334;49.982;8.398;2022-11-15T03:47:16;18.60;;;11.53;;
8592;SDS011;4334;49.982;8.398;2022-11-15T03:49:50;14.47;;;10.90;;
8592;SDS011;4334;49.982;8.398;2022-11-15T03:52:21;17.13;;;10.20;;
8592;SDS011;4334;49.982;8.398;2022-11-15T03:54:49;14.17;;;9.63;;
8592;SDS011;4334;49.982;8.398;2022-11-15T03:57:17;12.43;;;9.47;;
8592;SDS011;4334;49.982;8.398;2022-11-15T03:59:44;17.07;;;10.53;;
8592;SDS011;4334;49.982;8.398;2022-11-15T04:02:10;37.73;;;17.57;;
8592;SDS011;4334;49.982;8.398;2022-11-15T04:04:37;25.37;;;11.87;;
8592;SDS011;4334;49.982;8.398;2022-11-15T04:07:08;18.10;;;10.73;;
8592;SDS011;4334;49.982;8.398;2022-11-15T04:09:35;33.53;;;17.07;;
8592;SDS011;4334;49.982;8.398;2022-11-15T04:12:22;28.70;;;14.40;;
8592;SDS011;4334;49.982;8.398;2022-11-15T04:14:57;10.73;;;8.33;;
8592;SDS011;4334;49.982;8.398;2022-11-15T04:17:34;9.83;;;7.73;;
8592;SDS011;4334;49.982;8.398;2022-11-15T04:20:02;12.10;;;8.30;;
8592;SDS011;4334;49.982;8.398;2022-11-15T04:22:51;17.63;;;9.77;;
8592;SDS011;4334;49.982;8.398;2022-11-15T04:25:36;13.43;;;8.97;;
8592;SDS011;4334;49.982;8.398;2022-11-15T04:28:04;15.83;;;9.50;;
8592;SDS011;4334;49.982;8.398;2022-11-15T04:30:30;15.43;;;9.10;;
8592;SDS011;4334;49.982;8.398;2022-11-15T04:32:57;13.70;;;9.53;;
8592;SDS011;4334;49.982;8.398;2022-11-15T04:35:24;17.17;;;9.50;;
8592;SDS011;4334;49.982;8.398;2022-11-15T04:37:53;10.60;;;8.30;;
8592;SDS011;4334;49.982;8.398;2022-11-15T04:40:20;15.27;;;8.87;;
8592;SDS011;4334;49.982;8.398;2022-11-15T04:42:47;13.87;;;9.27;;
8592;SDS011;4334;49.982;8.398;2022-11-15T04:45:14;14.50;;;8.13;;
8592;SDS011;4334;49.982;8.398;2022-11-15T04:47:42;13.70;;;8.90;;
8592;SDS011;4334;49.982;8.398;2022-11-15T04:50:10;17.50;;;9.10;;
8592;SDS011;4334;49.982;8.398;2022-11-15T04:52:39;12.13;;;8.27;;
8592;SDS011;4334;49.982;8.398;2022-11-15T04:55:08;10.13;;;7.70;;
8592;SDS011;4334;49.982;8.398;2022-11-15T04:57:36;11.47;;;7.73;;
8592;SDS011;4334;49.982;8.398;2022-11-15T05:00:04;10.90;;;7.63;;
8592;SDS011;4334;49.982;8.398;2022-11-15T05:02:32;9.77;;;7.23;;
8592;SDS011;4334;49.982;8.398;2022-11-15T05:05:13;9.57;;;6.87;;
8592;SDS011;4334;49.982;8.398;2022-11-15T05:07:40;8.57;;;6.70;;
8592;SDS011;4334;49.982;8.398;2022-11-15T05:10:09;9.83;;;7.33;;
8592;SDS011;4334;49.982;8.398;2022-11-15T05:12:36;10.63;;;7.17;;
8592;SDS011;4334;49.982;8.398;2022-11-15T05:15:03;12.03;;;7.40;;
8592;SDS011;4334;49.982;8.398;2022-11-15T05:17:30;13.23;;;6.83;;
8592;SDS011;4334;49.982;8.398;2022-11-15T05:19:57;9.57;;;6.30;;
8592;SDS011;4334;49.982;8.398;2022-11-15T05:22:24;9.63;;;6.87;;
8592;SDS011;4334;49.982;8.398;2022-11-15T05:24:51;7.83;;;6.33;;
8592;SDS011;4334;49.982;8.398;2022-11-15T05:27:19;9.30;;;5.97;;
8592;SDS011;4334;49.982;8.398;2022-11-15T05:29:46;10.70;;;6.50;;
8592;SDS011;4334;49.982;8.398;2022-11-15T05:32:12;10.70;;;7.20;;
8592;SDS011;4334;49.982;8.398;2022-11-15T05:34:40;10.87;;;6.77;;
8592;SDS011;4334;49.982;8.398;2022-11-15T05:37:07;9.40;;;6.27;;
8592;SDS011;4334;49.982;8.398;2022-11-15T05:39:34;9.97;;;6.73;;
8592;SDS011;4334;49.982;8.398;2022-11-15T05:42:01;9.07;;;6.60;;
8592;SDS011;4334;49.982;8.398;2022-11-15T05:44:33;12.27;;;7.00;;
8592;SDS011;4334;49.982;8.398;2022-11-15T05:47:02;11.97;;;7.33;;
8592;SDS011;4334;49.982;8.398;2022-11-15T05:49:31;7.80;;;6.70;;
8592;SDS011;4334;49.982;8.398;2022-11-15T05:52:02;11.83;;;6.73;;
8592;SDS011;4334;49.982;8.398;2022-11-15T05:54:31;8.73;;;6.77;;
8592;SDS011;4334;49.982;8.398;2022-11-15T05:56:59;11.27;;;6.50;;
8592;SDS011;4334;49.982;8.398;2022-11-15T05:59:27;10.57;;;6.83;;
8592;SDS011;4334;49.982;8.398;2022-11-15T06:01:56;9.13;;;7.00;;
8592;SDS011;4334;49.982;8.398;2022-11-15T06:04:23;10.23;;;6.63;;
8592;SDS011;4334;49.982;8.398;2022-11-15T06:06:50;10.50;;;7.13;;
8592;SDS011;4334;49.982;8.398;2022-11-15T06:09:17;11.10;;;7.23;;
8592;SDS011;4334;49.982;8.398;2022-11-15T06:11:44;10.40;;;6.90;;
8592;SDS011;4334;49.982;8.398;2022-11-15T06:14:11;9.83;;;7.57;;
8592;SDS011;4334;49.982;8.398;2022-11-15T06:16:37;40.17;;;22.90;;
8592;SDS011;4334;49.982;8.398;2022-11-15T06:19:06;24.20;;;13.50;;
8592;SDS011;4334;49.982;8.398;2022-11-15T06:21:33;12.57;;;8.33;;
8592;SDS011;4334;49.982;8.398;2022-11-15T06:24:00;9.10;;;6.70;;
8592;SDS011;4334;49.982;8.398;2022-11-15T06:26:27;10.97;;;7.07;;
8592;SDS011;4334;49.982;8.398;2022-11-15T06:28:54;8.87;;;6.97;;
8592;SDS011;4334;49.982;8.398;2022-11-15T06:31:21;11.00;;;7.07;;
8592;SDS011;4334;49.982;8.398;2022-11-15T06:33:47;11.63;;;7.03;;
8592;SDS011;4334;49.982;8.398;2022-11-15T06:36:16;8.93;;;6.77;;
8592;SDS011;4334;49.982;8.398;2022-11-15T06:38:43;11.23;;;7.23;;
8592;SDS011;4334;49.982;8.398;2022-11-15T06:41:11;10.03;;;7.37;;
8592;SDS011;4334;49.982;8.398;2022-11-15T06:43:39;9.17;;;6.77;;
8592;SDS011;4334;49.982;8.398;2022-11-15T06:46:07;9.23;;;6.83;;
8592;SDS011;4334;49.982;8.398;2022-11-15T06:48:34;8.63;;;7.10;;
8592;SDS011;4334;49.982;8.398;2022-11-15T06:51:02;8.67;;;7.03;;
8592;SDS011;4334;49.982;8.398;2022-11-15T06:53:32;9.23;;;6.90;;
8592;SDS011;4334;49.982;8.398;2022-11-15T06:55:59;10.60;;;7.10;;
8592;SDS011;4334;49.982;8.398;2022-11-15T06:58:27;10.40;;;6.73;;
8592;SDS011;4334;49.982;8.398;2022-11-15T07:00:53;11.43;;;6.47;;
8592;SDS011;4334;49.982;8.398;2022-11-15T07:03:24;10.50;;;6.63;;
8592;SDS011;4334;49.982;8.398;2022-11-15T07:05:52;9.80;;;6.67;;
8592;SDS011;4334;49.982;8.398;2022-11-15T07:08:20;8.87;;;6.07;;
8592;SDS011;4334;49.982;8.398;2022-11-15T07:10:49;9.73;;;6.60;;
8592;SDS011;4334;49.982;8.398;2022-11-15T07:13:16;10.87;;;6.17;;
8592;SDS011;4334;49.982;8.398;2022-11-15T07:15:43;9.13;;;6.50;;
8592;SDS011;4334;49.982;8.398;2022-11-15T07:18:09;11.10;;;5.83;;
8592;SDS011;4334;49.982;8.398;2022-11-15T07:20:36;10.33;;;5.80;;
8592;SDS011;4334;49.982;8.398;2022-11-15T07:23:05;9.43;;;6.10;;
8592;SDS011;4334;49.982;8.398;2022-11-15T07:25:32;8.30;;;6.03;;
8592;SDS011;4334;49.982;8.398;2022-11-15T07:28:01;8.70;;;6.03;;
8592;SDS011;4334;49.982;8.398;2022-11-15T07:30:28;8.80;;;6.47;;
8592;SDS011;4334;49.982;8.398;2022-11-15T07:32:55;7.27;;;5.47;;
8592;SDS011;4334;49.982;8.398;2022-11-15T07:35:23;9.57;;;6.17;;
8592;SDS011;4334;49.982;8.398;2022-11-15T07:37:54;8.83;;;5.93;;
8592;SDS011;4334;49.982;8.398;2022-11-15T07:40:22;8.50;;;5.70;;
8592;SDS011;4334;49.982;8.398;2022-11-15T07:42:50;9.07;;;6.07;;
8592;SDS011;4334;49.982;8.398;2022-11-15T07:45:21;10.63;;;6.37;;
8592;SDS011;4334;49.982;8.398;2022-11-15T07:47:48;11.83;;;7.00;;
8592;SDS011;4334;49.982;8.398;2022-11-15T07:50:16;10.43;;;6.37;;
8592;SDS011;4334;49.982;8.398;2022-11-15T07:52:43;10.13;;;6.43;;
8592;SDS011;4334;49.982;8.398;2022-11-15T07:55:10;12.10;;;6.10;;
8592;SDS011;4334;49.982;8.398;2022-11-15T07:57:38;10.63;;;6.60;;
8592;SDS011;4334;49.982;8.398;2022-11-15T08:00:05;11.23;;;6.00;;
8592;SDS011;4334;49.982;8.398;2022-11-15T08:02:34;12.20;;;6.27;;
8592;SDS011;4334;49.982;8.398;2022-11-15T08:05:00;9.47;;;5.97;;
8592;SDS011;4334;49.982;8.398;2022-11-15T08:07:28;10.67;;;5.80;;
8592;SDS011;4334;49.982;8.398;2022-11-15T08:09:56;12.73;;;6.27;;
8592;SDS011;4334;49.982;8.398;2022-11-15T08:12:23;8.40;;;5.97;;
8592;SDS011;4334;49.982;8.398;2022-11-15T08:14:50;9.63;;;6.30;;
8592;SDS011;4334;49.982;8.398;2022-11-15T08:17:17;7.77;;;5.83;;
8592;SDS011;4334;49.982;8.398;2022-11-15T08:19:45;10.10;;;5.90;;
8592;SDS011;4334;49.982;8.398;2022-11-15T08:22:12;9.33;;;5.60;;
8592;SDS011;4334;49.982;8.398;2022-11-15T08:24:40;10.70;;;5.70;;
8592;SDS011;4334;49.982;8.398;2022-11-15T08:27:07;8.40;;;5.80;;
8592;SDS011;4334;49.982;8.398;2022-11-15T08:29:40;10.23;;;5.97;;
8592;SDS011;4334;49.982;8.398;2022-11-15T08:32:07;9.63;;;6.37;;
8592;SDS011;4334;49.982;8.398;2022-11-15T08:34:34;9.13;;;5.83;;
8592;SDS011;4334;49.982;8.398;2022-11-15T08:37:03;8.03;;;6.13;;
8592;SDS011;4334;49.982;8.398;2022-11-15T08:39:30;13.93;;;8.40;;
8592;SDS011;4334;49.982;8.398;2022-11-15T08:41:57;11.93;;;7.97;;
8592;SDS011;4334;49.982;8.398;2022-11-15T08:44:24;11.27;;;6.73;;
8592;SDS011;4334;49.982;8.398;2022-11-15T08:46:51;13.30;;;7.03;;
8592;SDS011;4334;49.982;8.398;2022-11-15T08:49:18;8.13;;;6.07;;
8592;SDS011;4334;49.982;8.398;2022-11-15T08:51:45;8.90;;;7.27;;
8592;SDS011;4334;49.982;8.398;2022-11-15T08:54:13;9.80;;;7.10;;
8592;SDS011;4334;49.982;8.398;2022-11-15T08:56:40;17.60;;;7.50;;
8592;SDS011;4334;49.982;8.398;2022-11-15T08:59:07;12.73;;;8.60;;
8592;SDS011;4334;49.982;8.398;2022-11-15T09:01:34;12.20;;;7.43;;
8592;SDS011;4334;49.982;8.398;2022-11-15T09:04:00;9.80;;;8.07;;
8592;SDS011;4334;49.982;8.398;2022-11-15T09:06:29;13.73;;;9.07;;
8592;SDS011;4334;49.982;8.398;2022-11-15T09:08:55;10.90;;;9.10;;
8592;SDS011;4334;49.982;8.398;2022-11-15T09:11:24;13.63;;;9.17;;
8592;SDS011;4334;49.982;8.398;2022-11-15T09:13:51;12.53;;;9.10;;
8592;SDS011;4334;49.982;8.398;2022-11-15T09:16:18;11.30;;;8.40;;
8592;SDS011;4334;49.982;8.398;2022-11-15T09:18:45;10.63;;;8.67;;
8592;SDS011;4334;49.982;8.398;2022-11-15T09:21:12;11.90;;;9.30;;
8592;SDS011;4334;49.982;8.398;2022-11-15T09:23:39;9.97;;;8.60;;
8592;SDS011;4334;49.982;8.398;2022-11-15T09:26:06;9.47;;;8.27;;
8592;SDS011;4334;49.982;8.398;2022-11-15T09:28:35;9.80;;;7.53;;
8592;SDS011;4334;49.982;8.398;2022-11-15T09:31:04;9.10;;;7.17;;
8592;SDS011;4334;49.982;8.398;2022-11-15T09:33:32;9.70;;;6.93;;
8592;SDS011;4334;49.982;8.398;2022-11-15T09:36:00;8.10;;;6.30;;
8592;SDS011;4334;49.982;8.398;2022-11-15T09:38:28;7.87;;;6.70;;
8592;SDS011;4334;49.982;8.398;2022-11-15T09:40:58;12.17;;;7.73;;
8592;SDS011;4334;49.982;8.398;2022-11-15T09:43:46;8.43;;;6.40;;
8592;SDS011;4334;49.982;8.398;2022-11-15T09:46:21;9.17;;;6.43;;
8592;SDS011;4334;49.982;8.398;2022-11-15T09:48:52;10.13;;;6.50;;
8592;SDS011;4334;49.982;8.398;2022-11-15T09:51:26;11.43;;;6.40;;
8592;SDS011;4334;49.982;8.398;2022-11-15T09:53:57;10.30;;;6.60;;
8592;SDS011;4334;49.982;8.398;2022-11-15T09:56:30;10.17;;;6.40;;
8592;SDS011;4334;49.982;8.398;2022-11-15T09:59:04;7.67;;;6.63;;
8592;SDS011;4334;49.982;8.398;2022-11-15T10:01:43;9.40;;;6.70;;
8592;SDS011;4334;49.982;8.398;2022-11-15T10:04:16;8.10;;;6.57;;
8592;SDS011;4334;49.982;8.398;2022-11-15T10:06:46;9.83;;;6.63;;
8592;SDS011;4334;49.982;8.398;2022-11-15T10:09:19;9.30;;;6.97;;
8592;SDS011;4334;49.982;8.398;2022-11-15T10:11:50;10.77;;;6.57;;
8592;SDS011;4334;49.982;8.398;2022-11-15T10:14:19;11.63;;;7.40;;
8592;SDS011;4334;49.982;8.398;2022-11-15T10:16:54;11.13;;;7.87;;
8592;SDS011;4334;49.982;8.398;2022-11-15T10:19:45;10.23;;;7.80;;
8592;SDS011;4334;49.982;8.398;2022-11-15T10:22:26;10.80;;;6.70;;
8592;SDS011;4334;49.982;8.398;2022-11-15T10:27:46;11.67;;;6.77;;
8592;SDS011;4334;49.982;8.398;2022-11-15T10:30:19;10.03;;;7.40;;
8592;SDS011;4334;49.982;8.398;2022-11-15T10:32:47;11.63;;;7.30;;
8592;SDS011;4334;49.982;8.398;2022-11-15T10:35:16;9.23;;;6.90;;
8592;SDS011;4334;49.982;8.398;2022-11-15T10:37:49;11.20;;;7.83;;
8592;SDS011;4334;49.982;8.398;2022-11-15T10:40:17;11.03;;;7.40;;
8592;SDS011;4334;49.982;8.398;2022-11-15T10:42:45;16.33;;;8.13;;
8592;SDS011;4334;49.982;8.398;2022-11-15T10:45:24;9.87;;;8.50;;
8592;SDS011;4334;49.982;8.398;2022-11-15T10:47:53;12.20;;;8.60;;
8592;SDS011;4334;49.982;8.398;2022-11-15T10:50:31;13.97;;;8.93;;
8592;SDS011;4334;49.982;8.398;2022-11-15T10:52:58;10.00;;;8.83;;
8592;SDS011;4334;49.982;8.398;2022-11-15T10:55:28;11.50;;;8.07;;
8592;SDS011;4334;49.982;8.398;2022-11-15T10:57:59;13.63;;;8.03;;
8592;SDS011;4334;49.982;8.398;2022-11-15T11:00:32;11.40;;;8.27;;
8592;SDS011;4334;49.982;8.398;2022-11-15T11:03:01;12.53;;;8.00;;
8592;SDS011;4334;49.982;8.398;2022-11-15T11:05:32;11.07;;;7.60;;
8592;SDS011;4334;49.982;8.398;2022-11-15T11:08:01;8.73;;;7.43;;
8592;SDS011;4334;49.982;8.398;2022-11-15T11:10:29;9.43;;;7.30;;
8592;SDS011;4334;49.982;8.398;2022-11-15T11:13:05;18.80;;;7.10;;
8592;SDS011;4334;49.982;8.398;2022-11-15T11:15:40;13.07;;;8.00;;
8592;SDS011;4334;49.982;8.398;2022-11-15T11:18:16;8.50;;;7.00;;
8592;SDS011;4334;49.982;8.398;2022-11-15T11:20:51;18.20;;;7.07;;
8592;SDS011;4334;49.982;8.398;2022-11-15T11:23:28;9.90;;;6.90;;
8592;SDS011;4334;49.982;8.398;2022-11-15T11:26:10;10.03;;;6.37;;
8592;SDS011;4334;49.982;8.398;2022-11-15T11:28:46;11.90;;;6.50;;
8592;SDS011;4334;49.982;8.398;2022-11-15T11:31:23;7.63;;;6.10;;
8592;SDS011;4334;49.982;8.398;2022-11-15T11:33:58;10.17;;;6.13;;
8592;SDS011;4334;49.982;8.398;2022-11-15T11:36:32;9.40;;;6.33;;
8592;SDS011;4334;49.982;8.398;2022-11-15T11:39:11;7.67;;;6.30;;
8592;SDS011;4334;49.982;8.398;2022-11-15T11:41:50;9.63;;;6.50;;
8592;SDS011;4334;49.982;8.398;2022-11-15T11:44:30;11.77;;;6.73;;
8592;SDS011;4334;49.982;8.398;2022-11-15T11:47:03;11.07;;;7.03;;
8592;SDS011;4334;49.982;8.398;2022-11-15T11:49:37;11.73;;;7.83;;
8592;SDS011;4334;49.982;8.398;2022-11-15T11:52:09;8.93;;;6.50;;
8592;SDS011;4334;49.982;8.398;2022-11-15T11:54:42;8.40;;;6.10;;
8592;SDS011;4334;49.982;8.398;2022-11-15T11:57:16;7.33;;;6.00;;
8592;SDS011;4334;49.982;8.398;2022-11-15T11:59:57;6.00;;;5.40;;
8592;SDS011;4334;49.982;8.398;2022-11-15T12:02:30;7.43;;;5.93;;
8592;SDS011;4334;49.982;8.398;2022-11-15T12:05:04;8.50;;;6.00;;
8592;SDS011;4334;49.982;8.398;2022-11-15T12:07:37;7.83;;;5.93;;
8592;SDS011;4334;49.982;8.398;2022-11-15T12:10:11;6.30;;;5.57;;
8592;SDS011;4334;49.982;8.398;2022-11-15T12:12:47;11.60;;;6.87;;
8592;SDS011;4334;49.982;8.398;2022-11-15T12:15:20;9.20;;;6.13;;
8592;SDS011;4334;49.982;8.398;2022-11-15T12:17:52;9.77;;;6.33;;
8592;SDS011;4334;49.982;8.398;2022-11-15T12:20:22;12.23;;;6.37;;
8592;SDS011;4334;49.982;8.398;2022-11-15T12:22:52;11.50;;;5.43;;
8592;SDS011;4334;49.982;8.398;2022-11-15T12:25:22;9.57;;;5.40;;
8592;SDS011;4334;49.982;8.398;2022-11-15T12:27:54;6.87;;;5.63;;
8592;SDS011;4334;49.982;8.398;2022-11-15T12:30:25;6.93;;;4.90;;
8592;SDS011;4334;49.982;8.398;2022-11-15T12:33:04;6.10;;;4.80;;
8592;SDS011;4334;49.982;8.398;2022-11-15T12:35:33;6.23;;;4.97;;
8592;SDS011;4334;49.982;8.398;2022-11-15T12:38:03;9.97;;;5.53;;
8592;SDS011;4334;49.982;8.398;2022-11-15T12:40:32;6.07;;;5.33;;
8592;SDS011;4334;49.982;8.398;2022-11-15T12:46:01;9.57;;;5.40;;
8592;SDS011;4334;49.982;8.398;2022-11-15T12:51:21;8.63;;;5.93;;
8592;SDS011;4334;49.982;8.398;2022-11-15T12:57:36;6.70;;;5.70;;
8592;SDS011;4334;49.982;8.398;2022-11-15T13:03:21;8.43;;;5.80;;
8592;SDS011;4334;49.982;8.398;2022-11-15T13:05:56;8.40;;;5.57;;
8592;SDS011;4334;49.982;8.398;2022-11-15T13:08:38;7.90;;;5.70;;
8592;SDS011;4334;49.982;8.398;2022-11-15T13:17:10;8.40;;;5.23;;
8592;SDS011;4334;49.982;8.398;2022-11-15T13:19:53;6.50;;;4.70;;
8592;SDS011;4334;49.982;8.398;2022-11-15T13:22:37;6.37;;;5.20;;
8592;SDS011;4334;49.982;8.398;2022-11-15T13:25:19;5.87;;;4.77;;
8592;SDS011;4334;49.982;8.398;2022-11-15T13:28:48;8.27;;;5.57;;
8592;SDS011;4334;49.982;8.398;2022-11-15T13:31:24;11.37;;;5.47;;
8592;SDS011;4334;49.982;8.398;2022-11-15T13:33:55;6.97;;;4.90;;
8592;SDS011;4334;49.982;8.398;2022-11-15T13:36:27;6.30;;;4.93;;
8592;SDS011;4334;49.982;8.398;2022-11-15T13:38:58;10.03;;;5.30;;
8592;SDS011;4334;49.982;8.398;2022-11-15T13:41:28;6.67;;;4.67;;
8592;SDS011;4334;49.982;8.398;2022-11-15T13:43:56;7.20;;;4.47;;
8592;SDS011;4334;49.982;8.398;2022-11-15T13:46:24;8.00;;;4.70;;
8592;SDS011;4334;49.982;8.398;2022-11-15T13:48:54;6.87;;;4.90;;
8592;SDS011;4334;49.982;8.398;2022-11-15T13:51:24;7.77;;;4.67;;
8592;SDS011;4334;49.982;8.398;2022-11-15T13:54:02;7.50;;;4.77;;
8592;SDS011;4334;49.982;8.398;2022-11-15T13:56:36;6.53;;;4.57;;
8592;SDS011;4334;49.982;8.398;2022-11-15T13:59:09;6.93;;;4.60;;
8592;SDS011;4334;49.982;8.398;2022-11-15T14:01:36;6.13;;;4.50;;
8592;SDS011;4334;49.982;8.398;2022-11-15T14:04:10;6.07;;;4.23;;
8592;SDS011;4334;49.982;8.398;2022-11-15T14:06:44;6.73;;;4.33;;
8592;SDS011;4334;49.982;8.398;2022-11-15T14:09:24;5.63;;;4.00;;
8592;SDS011;4334;49.982;8.398;2022-11-15T14:11:59;8.70;;;4.97;;
8592;SDS011;4334;49.982;8.398;2022-11-15T14:14:27;9.80;;;5.20;;
8592;SDS011;4334;49.982;8.398;2022-11-15T14:16:55;6.73;;;4.43;;
8592;SDS011;4334;49.982;8.398;2022-11-15T14:19:37;6.00;;;4.30;;
8592;SDS011;4334;49.982;8.398;2022-11-15T14:22:13;6.50;;;4.30;;
8592;SDS011;4334;49.982;8.398;2022-11-15T14:24:43;8.20;;;4.47;;
8592;SDS011;4334;49.982;8.398;2022-11-15T14:27:18;6.83;;;3.50;;
8592;SDS011;4334;49.982;8.398;2022-11-15T14:29:49;6.17;;;3.60;;
8592;SDS011;4334;49.982;8.398;2022-11-15T14:32:17;5.40;;;3.60;;
8592;SDS011;4334;49.982;8.398;2022-11-15T14:34:46;4.20;;;3.13;;
8592;SDS011;4334;49.982;8.398;2022-11-15T14:37:19;6.73;;;3.23;;
8592;SDS011;4334;49.982;8.398;2022-11-15T14:39:49;3.90;;;3.33;;
8592;SDS011;4334;49.982;8.398;2022-11-15T14:42:20;4.87;;;3.40;;
8592;SDS011;4334;49.982;8.398;2022-11-15T14:44:48;4.37;;;3.30;;
8592;SDS011;4334;49.982;8.398;2022-11-15T14:47:18;3.97;;;3.30;;
8592;SDS011;4334;49.982;8.398;2022-11-15T14:49:45;4.57;;;2.93;;
8592;SDS011;4334;49.982;8.398;2022-11-15T14:52:25;5.60;;;3.27;;
8592;SDS011;4334;49.982;8.398;2022-11-15T14:54:55;5.17;;;2.70;;
8592;SDS011;4334;49.982;8.398;2022-11-15T14:57:23;3.20;;;2.90;;
8592;SDS011;4334;49.982;8.398;2022-11-15T14:59:50;8.13;;;2.77;;
8592;SDS011;4334;49.982;8.398;2022-11-15T15:02:18;3.83;;;3.00;;
8592;SDS011;4334;49.982;8.398;2022-11-15T15:04:47;4.33;;;2.80;;
8592;SDS011;4334;49.982;8.398;2022-11-15T15:07:16;4.40;;;2.80;;
8592;SDS011;4334;49.982;8.398;2022-11-15T15:09:43;2.97;;;2.40;;
8592;SDS011;4334;49.982;8.398;2022-11-15T15:12:15;3.50;;;2.50;;
8592;SDS011;4334;49.982;8.398;2022-11-15T15:14:44;4.67;;;2.50;;
8592;SDS011;4334;49.982;8.398;2022-11-15T15:17:14;7.43;;;2.60;;
8592;SDS011;4334;49.982;8.398;2022-11-15T15:19:42;4.13;;;2.60;;
8592;SDS011;4334;49.982;8.398;2022-11-15T15:22:10;3.90;;;2.50;;
8592;SDS011;4334;49.982;8.398;2022-11-15T15:24:40;4.23;;;3.43;;
8592;SDS011;4334;49.982;8.398;2022-11-15T15:27:07;6.60;;;3.57;;
8592;SDS011;4334;49.982;8.398;2022-11-15T15:29:36;5.10;;;3.70;;
8592;SDS011;4334;49.982;8.398;2022-11-15T15:32:03;6.70;;;3.90;;
8592;SDS011;4334;49.982;8.398;2022-11-15T15:34:31;6.63;;;3.80;;
8592;SDS011;4334;49.982;8.398;2022-11-15T15:39:53;5.40;;;3.37;;
8592;SDS011;4334;49.982;8.398;2022-11-15T15:42:21;4.20;;;3.17;;
8592;SDS011;4334;49.982;8.398;2022-11-15T15:44:50;5.60;;;2.97;;
8592;SDS011;4334;49.982;8.398;2022-11-15T15:47:18;4.33;;;3.00;;
8592;SDS011;4334;49.982;8.398;2022-11-15T15:49:47;4.67;;;3.30;;